Time,TemperatureF,DewpointF,PressureIn,WindDirection,WindDirectionDegrees,WindSpeedMPH,WindSpeedGustMPH,Humidity,HourlyPrecipIn,Conditions,Clouds,dailyrainin,SoftwareType,DateUTC
2013-07-28 00:00:00,56.7,-43.3,29.97,WNW,283,0.0,4.0,1,0.00,,,0.00,Wunderground v.1.15,2013-07-28 05:00:00,
2013-07-28 00:09:00,56.5,-43.5,29.97,WNW,283,0.0,4.0,1,0.00,,,0.00,Wunderground v.1.15,2013-07-28 05:09:00,
2013-07-28 00:19:00,55.9,-43.8,29.97,WNW,283,0.0,4.0,1,0.00,,,0.00,Wunderground v.1.15,2013-07-28 05:19:00,
2013-07-28 00:29:00,55.4,-44.1,29.98,WNW,283,0.0,4.0,1,0.00,,,0.00,Wunderground v.1.15,2013-07-28 05:29:00,
2013-07-28 00:34:00,55.5,-44.1,29.98,WNW,283,0.0,4.0,1,0.00,,,0.00,Wunderground v.1.15,2013-07-28 05:34:00,
2013-07-28 00:40:00,55.8,-43.9,29.98,WNW,283,0.0,4.0,1,0.00,,,0.00,Wunderground v.1.15,2013-07-28 05:40:00,
2013-07-28 00:49:00,55.7,-43.9,29.98,WNW,283,0.0,4.0,1,0.00,,,0.00,Wunderground v.1.15,2013-07-28 05:49:00,
2013-07-28 00:54:00,55.6,-44.0,29.99,WNW,283,0.0,4.0,1,0.00,,,0.00,Wunderground v.1.15,2013-07-28 05:54:00,
2013-07-28 00:59:00,55.7,-43.9,29.99,WNW,283,0.0,4.0,1,0.00,,,0.00,Wunderground v.1.15,2013-07-28 05:59:00,
2013-07-28 01:09:00,55.6,-44.0,29.99,WNW,283,0.0,4.0,1,0.00,,,0.00,Wunderground v.1.15,2013-07-28 06:09:00,
2013-07-28 01:14:00,55.7,-43.9,29.99,WNW,283,0.0,4.0,1,0.00,,,0.00,Wunderground v.1.15,2013-07-28 06:14:00,
2013-07-28 01:25:00,55.4,-44.1,29.99,WNW,283,0.0,4.0,1,0.00,,,0.00,Wunderground v.1.15,2013-07-28 06:25:00,
2013-07-28 01:34:00,55.6,-44.0,29.97,WNW,283,0.0,4.0,1,0.00,,,0.00,Wunderground v.1.15,2013-07-28 06:34:00,
2013-07-28 01:44:00,55.9,-43.8,29.97,WNW,282,0.0,4.0,1,0.00,,,0.00,Wunderground v.1.15,2013-07-28 06:44:00,
2013-07-28 01:54:00,56.0,-43.8,29.98,WNW,282,0.0,4.0,1,0.00,,,0.00,Wunderground v.1.15,2013-07-28 06:54:00,
2013-07-28 02:05:00,56.3,-43.6,29.99,WNW,282,0.0,4.0,1,0.00,,,0.00,Wunderground v.1.15,2013-07-28 07:05:00,
2013-07-28 02:14:00,56.1,-43.7,29.99,WNW,282,0.0,4.0,1,0.00,,,0.00,Wunderground v.1.15,2013-07-28 07:14:00,
2013-07-28 02:24:00,56.1,-43.7,29.99,WNW,282,0.0,4.0,1,0.00,,,0.00,Wunderground v.1.15,2013-07-28 07:24:00,
2013-07-28 02:34:00,56.0,-43.8,29.99,WNW,283,0.0,4.0,1,0.00,,,0.00,Wunderground v.1.15,2013-07-28 07:34:00,
2013-07-28 02:40:00,56.0,-43.8,29.99,WNW,283,0.0,4.0,1,0.00,,,0.00,Wunderground v.1.15,2013-07-28 07:40:00,
2013-07-28 02:49:00,56.2,-43.6,29.99,WNW,282,0.0,4.0,1,0.00,,,0.00,Wunderground v.1.15,2013-07-28 07:49:00,
2013-07-28 02:59:00,55.8,-43.9,29.99,WNW,283,0.0,4.0,1,0.00,,,0.00,Wunderground v.1.15,2013-07-28 07:59:00,
2013-07-28 03:09:00,55.7,-43.9,29.99,WNW,283,0.0,4.0,1,0.00,,,0.00,Wunderground v.1.15,2013-07-28 08:09:00,
2013-07-28 03:15:00,55.6,-44.0,29.99,WNW,283,0.0,4.0,1,0.00,,,0.00,Wunderground v.1.15,2013-07-28 08:15:00,
2013-07-28 03:24:00,55.5,-44.1,29.99,WNW,282,0.0,4.0,1,0.00,,,0.00,Wunderground v.1.15,2013-07-28 08:24:00,
2013-07-28 03:34:00,55.6,-44.0,29.99,WNW,283,0.0,4.0,1,0.00,,,0.00,Wunderground v.1.15,2013-07-28 08:34:00,
2013-07-28 03:44:00,55.8,-43.9,29.99,WNW,283,0.0,4.0,1,0.00,,,0.00,Wunderground v.1.15,2013-07-28 08:44:00,
2013-07-28 03:54:00,55.7,-43.9,29.99,WNW,283,0.0,4.0,1,0.00,,,0.00,Wunderground v.1.15,2013-07-28 08:54:00,
2013-07-28 04:00:00,55.6,-44.0,29.99,WNW,283,0.0,4.0,1,0.00,,,0.00,Wunderground v.1.15,2013-07-28 09:00:00,
2013-07-28 04:09:00,55.3,-44.2,29.99,WNW,283,0.0,4.0,1,0.00,,,0.00,Wunderground v.1.15,2013-07-28 09:09:00,
2013-07-28 04:19:00,55.4,-44.1,29.99,WNW,283,0.0,4.0,1,0.00,,,0.00,Wunderground v.1.15,2013-07-28 09:19:00,
2013-07-28 04:29:00,55.7,-43.9,29.99,WNW,283,0.0,4.0,1,0.00,,,0.00,Wunderground v.1.15,2013-07-28 09:29:00,
2013-07-28 04:39:00,56.2,-43.6,29.99,WNW,283,0.0,4.0,1,0.00,,,0.00,Wunderground v.1.15,2013-07-28 09:39:00,
2013-07-28 04:44:00,56.4,-43.5,29.99,WNW,283,0.0,4.0,1,0.00,,,0.00,Wunderground v.1.15,2013-07-28 09:44:00,
2013-07-28 04:49:00,56.3,-43.6,29.99,WNW,283,0.0,4.0,1,0.00,,,0.00,Wunderground v.1.15,2013-07-28 09:49:00,
2013-07-28 04:59:00,56.3,-43.6,30.00,WNW,283,0.0,4.0,1,0.00,,,0.00,Wunderground v.1.15,2013-07-28 09:59:00,
2013-07-28 05:09:00,56.2,-43.6,30.00,WNW,283,0.0,4.0,1,0.00,,,0.00,Wunderground v.1.15,2013-07-28 10:09:00,
2013-07-28 05:20:00,56.1,-43.7,30.00,WNW,283,0.0,4.0,1,0.00,,,0.00,Wunderground v.1.15,2013-07-28 10:20:00,
2013-07-28 05:29:00,56.2,-43.6,30.01,WNW,282,0.0,4.0,1,0.00,,,0.00,Wunderground v.1.15,2013-07-28 10:29:00,
2013-07-28 05:39:00,56.4,-43.5,30.01,WNW,283,0.0,4.0,1,0.00,,,0.00,Wunderground v.1.15,2013-07-28 10:39:00,
2013-07-28 05:49:00,56.4,-43.5,30.01,WNW,283,0.0,4.0,1,0.00,,,0.00,Wunderground v.1.15,2013-07-28 10:49:00,
2013-07-28 06:00:00,56.2,-43.6,30.01,WNW,282,0.0,4.0,1,0.00,,,0.00,Wunderground v.1.15,2013-07-28 11:00:00,
2013-07-28 06:09:00,56.2,-43.6,30.01,WNW,283,0.0,4.0,1,0.00,,,0.00,Wunderground v.1.15,2013-07-28 11:09:00,
2013-07-28 06:19:00,56.2,-43.6,30.01,WNW,283,0.0,4.0,1,0.00,,,0.00,Wunderground v.1.15,2013-07-28 11:19:00,
2013-07-28 06:29:00,56.3,-43.6,30.02,WNW,283,0.0,4.0,1,0.00,,,0.00,Wunderground v.1.15,2013-07-28 11:29:00,
2013-07-28 06:39:00,56.6,-43.4,30.01,WNW,283,0.0,4.0,1,0.00,,,0.00,Wunderground v.1.15,2013-07-28 11:39:00,
2013-07-28 06:44:00,56.9,-43.2,30.01,WNW,282,0.0,4.0,1,0.00,,,0.00,Wunderground v.1.15,2013-07-28 11:44:00,
2013-07-28 06:54:00,58.1,-42.5,30.01,WNW,283,0.0,4.0,1,0.00,,,0.00,Wunderground v.1.15,2013-07-28 11:54:00,
2013-07-28 06:59:00,58.4,-42.3,30.01,WNW,283,0.0,4.0,1,0.00,,,0.00,Wunderground v.1.15,2013-07-28 11:59:00,
2013-07-28 07:09:00,59.2,-41.8,30.01,WNW,283,0.0,4.0,1,0.00,,,0.00,Wunderground v.1.15,2013-07-28 12:09:00,
2013-07-28 07:15:00,59.5,-41.6,30.01,WNW,283,0.0,4.0,1,0.00,,,0.00,Wunderground v.1.15,2013-07-28 12:15:00,
2013-07-28 07:24:00,59.8,-41.4,30.01,WNW,283,0.0,4.0,1,0.00,,,0.00,Wunderground v.1.15,2013-07-28 12:24:00,
2013-07-28 07:34:00,61.6,-40.3,30.01,WNW,282,0.0,4.0,1,0.00,,,0.00,Wunderground v.1.15,2013-07-28 12:34:00,
2013-07-28 07:44:00,62.1,-40.0,30.01,WNW,282,0.0,4.0,1,0.00,,,0.00,Wunderground v.1.15,2013-07-28 12:44:00,
2013-07-28 07:54:00,62.4,-39.8,30.02,WNW,282,0.0,4.0,1,0.00,,,0.00,Wunderground v.1.15,2013-07-28 12:54:00,
2013-07-28 08:00:00,62.5,-39.8,30.02,WNW,283,0.0,4.0,1,0.00,,,0.00,Wunderground v.1.15,2013-07-28 13:00:00,
2013-07-28 08:05:00,62.6,-39.7,30.02,WNW,283,0.0,4.0,1,0.00,,,0.00,Wunderground v.1.15,2013-07-28 13:05:00,
2013-07-28 08:14:00,63.2,-39.4,30.02,WNW,282,0.0,4.0,1,0.00,,,0.00,Wunderground v.1.15,2013-07-28 13:14:00,
2013-07-28 08:24:00,63.8,-39.0,30.01,WNW,282,0.0,4.0,1,0.00,,,0.00,Wunderground v.1.15,2013-07-28 13:24:00,
2013-07-28 08:29:00,64.4,-38.6,30.01,East,86,0.0,4.0,1,0.00,,,0.00,Wunderground v.1.15,2013-07-28 13:29:00,
2013-07-28 08:39:00,65.2,-38.1,30.02,ESE,107,0.0,4.0,1,0.00,,,0.00,Wunderground v.1.15,2013-07-28 13:39:00,
2013-07-28 08:44:00,65.3,-38.1,30.02,NNE,18,0.0,4.0,1,0.00,,,0.00,Wunderground v.1.15,2013-07-28 13:44:00,
2013-07-28 08:54:00,66.3,-37.5,30.02,NNE,20,0.0,4.0,1,0.00,,,0.00,Wunderground v.1.15,2013-07-28 13:54:00,
2013-07-28 09:04:00,66.7,-37.2,30.02,NNE,25,0.0,4.0,1,0.00,,,0.00,Wunderground v.1.15,2013-07-28 14:04:00,
2013-07-28 09:14:00,67.6,-36.7,30.02,East,101,0.0,4.0,1,0.00,,,0.00,Wunderground v.1.15,2013-07-28 14:14:00,
2013-07-28 09:20:00,68.2,-36.3,30.02,NE,34,0.0,4.0,1,0.00,,,0.00,Wunderground v.1.15,2013-07-28 14:20:00,
2013-07-28 09:30:00,68.7,-36.0,30.02,East,87,0.0,4.0,1,0.00,,,0.00,Wunderground v.1.15,2013-07-28 14:30:00,
2013-07-28 09:39:00,69.2,-35.7,30.02,ENE,70,0.0,4.0,1,0.00,,,0.00,Wunderground v.1.15,2013-07-28 14:39:00,
2013-07-28 09:49:00,69.3,-35.6,30.01,SE,137,0.0,4.0,1,0.00,,,0.00,Wunderground v.1.15,2013-07-28 14:49:00,
2013-07-28 09:59:00,69.9,-35.3,30.01,ESE,113,0.0,4.0,1,0.00,,,0.00,Wunderground v.1.15,2013-07-28 14:59:00,
2013-07-28 10:05:00,70.2,-35.1,30.01,ESE,120,0.0,4.0,1,0.00,,,0.00,Wunderground v.1.15,2013-07-28 15:05:00,
2013-07-28 10:14:00,71.3,-34.4,30.01,ESE,108,0.0,4.0,1,0.00,,,0.00,Wunderground v.1.15,2013-07-28 15:14:00,
2013-07-28 10:24:00,73.5,23.0,30.01,NE,54,0.0,4.0,15,0.00,,,0.00,Wunderground v.1.15,2013-07-28 15:24:00,
2013-07-28 10:29:00,73.6,24.6,30.01,WNW,284,0.0,4.0,16,0.00,,,0.00,Wunderground v.1.15,2013-07-28 15:29:00,
2013-07-28 10:39:00,73.2,29.7,30.02,South,186,0.0,4.0,20,0.00,,,0.00,Wunderground v.1.15,2013-07-28 15:39:00,
2013-07-28 10:45:00,73.9,30.3,30.02,NNE,18,0.0,4.0,20,0.00,,,0.00,Wunderground v.1.15,2013-07-28 15:45:00,
2013-07-28 10:54:00,74.0,38.8,30.02,ESE,113,0.0,4.0,28,0.00,,,0.00,Wunderground v.1.15,2013-07-28 15:54:00,
2013-07-28 11:04:00,74.1,37.0,30.02,ESE,114,1.0,4.0,26,0.00,,,0.00,Wunderground v.1.15,2013-07-28 16:04:00,
2013-07-28 11:14:00,73.6,33.5,30.03,ESE,115,0.0,4.0,23,0.00,,,0.00,Wunderground v.1.15,2013-07-28 16:14:00,
2013-07-28 11:20:00,73.5,34.5,30.02,ESE,110,0.0,4.0,24,0.00,,,0.00,Wunderground v.1.15,2013-07-28 16:20:00,
2013-07-28 11:29:00,73.4,32.2,30.02,ESE,120,2.0,2.0,22,0.00,,,0.00,Wunderground v.1.15,2013-07-28 16:29:00,
2013-07-28 11:39:00,74.0,29.1,30.02,East,98,0.0,4.0,19,0.00,,,0.00,Wunderground v.1.15,2013-07-28 16:39:00,
2013-07-28 11:49:00,73.8,36.8,30.02,East,100,1.0,4.0,26,0.00,,,0.00,Wunderground v.1.15,2013-07-28 16:49:00,
2013-07-28 11:55:00,73.9,38.7,30.02,East,101,2.0,4.0,28,0.00,,,0.00,Wunderground v.1.15,2013-07-28 16:55:00,
2013-07-28 12:04:00,74.6,34.3,30.01,SE,129,0.0,4.0,23,0.00,,,0.00,Wunderground v.1.15,2013-07-28 17:04:00,
2013-07-28 12:14:00,74.5,38.3,30.01,East,99,1.0,4.0,27,0.00,,,0.00,Wunderground v.1.15,2013-07-28 17:14:00,
2013-07-28 12:24:00,74.8,39.5,30.02,East,91,1.0,4.0,28,0.00,,,0.00,Wunderground v.1.15,2013-07-28 17:24:00,
2013-07-28 12:29:00,74.4,40.1,30.02,SE,136,1.0,4.0,29,0.00,,,0.00,Wunderground v.1.15,2013-07-28 17:29:00,
2013-07-28 12:40:00,73.9,38.7,30.02,ESE,105,1.0,1.0,28,0.00,,,0.00,Wunderground v.1.15,2013-07-28 17:40:00,
2013-07-28 12:45:00,73.7,37.6,30.02,ESE,111,0.0,4.0,27,0.00,,,0.00,Wunderground v.1.15,2013-07-28 17:45:00,
2013-07-28 12:54:00,73.4,27.3,30.01,SE,134,1.0,4.0,18,0.00,,,0.00,Wunderground v.1.15,2013-07-28 17:54:00,
2013-07-28 13:04:00,72.9,32.9,30.01,ESE,105,1.0,4.0,23,0.00,,,0.00,Wunderground v.1.15,2013-07-28 18:04:00,
2013-07-28 13:14:00,72.4,29.0,30.01,ESE,103,1.0,4.0,20,0.00,,,0.00,Wunderground v.1.15,2013-07-28 18:14:00,
2013-07-28 13:24:00,72.7,20.7,30.02,SE,144,0.0,4.0,14,0.00,,,0.00,Wunderground v.1.15,2013-07-28 18:24:00,
2013-07-28 13:34:00,74.6,26.9,30.01,ENE,78,1.0,4.0,17,0.00,,,0.00,Wunderground v.1.15,2013-07-28 18:34:00,
2013-07-28 13:44:00,75.4,40.0,30.00,East,86,1.0,4.0,28,0.00,,,0.00,Wunderground v.1.15,2013-07-28 18:44:00,
2013-07-28 13:55:00,73.9,36.8,30.01,East,100,2.0,4.0,26,0.00,,,0.00,Wunderground v.1.15,2013-07-28 18:55:00,
2013-07-28 14:04:00,73.5,26.0,30.01,East,86,1.0,4.0,17,0.00,,,0.00,Wunderground v.1.15,2013-07-28 19:04:00,
2013-07-28 14:14:00,73.7,15.9,30.01,ESE,114,0.0,2.0,11,0.00,,,0.00,Wunderground v.1.15,2013-07-28 19:14:00,
2013-07-28 14:24:00,73.5,24.5,30.01,East,89,1.0,4.0,16,0.00,,,0.00,Wunderground v.1.15,2013-07-28 19:24:00,
2013-07-28 14:35:00,73.7,13.7,30.00,ESE,110,0.0,4.0,10,0.00,,,0.00,Wunderground v.1.15,2013-07-28 19:35:00,
2013-07-28 14:45:00,73.7,11.3,30.00,SE,142,0.0,4.0,9,0.00,,,0.00,Wunderground v.1.15,2013-07-28 19:45:00,
2013-07-28 14:54:00,73.9,5.9,30.00,SE,136,0.0,4.0,7,0.00,,,0.00,Wunderground v.1.15,2013-07-28 19:54:00,
2013-07-28 15:04:00,74.2,-32.7,30.00,East,88,0.0,4.0,1,0.00,,,0.00,Wunderground v.1.15,2013-07-28 20:04:00,
2013-07-28 15:14:00,74.3,-11.7,30.00,SE,132,0.0,4.0,3,0.00,,,0.00,Wunderground v.1.15,2013-07-28 20:14:00,
2013-07-28 15:20:00,74.2,23.5,30.00,ESE,115,0.0,4.0,15,0.00,,,0.00,Wunderground v.1.15,2013-07-28 20:20:00,
2013-07-28 15:29:00,74.6,16.6,30.00,East,101,1.0,1.0,11,0.00,,,0.00,Wunderground v.1.15,2013-07-28 20:29:00,
2013-07-28 15:34:00,74.7,25.5,30.00,ESE,105,0.0,4.0,16,0.00,,,0.00,Wunderground v.1.15,2013-07-28 20:34:00,
2013-07-28 15:44:00,75.6,24.7,30.00,SE,127,0.0,4.0,15,0.00,,,0.00,Wunderground v.1.15,2013-07-28 20:44:00,
2013-07-28 15:55:00,75.5,30.3,30.01,SW,221,1.0,4.0,19,0.00,,,0.00,Wunderground v.1.15,2013-07-28 20:55:00,
2013-07-28 16:04:00,76.0,33.2,30.00,East,83,0.0,4.0,21,0.00,,,0.00,Wunderground v.1.15,2013-07-28 21:04:00,
2013-07-28 16:14:00,75.7,34.1,30.01,SE,129,0.0,4.0,22,0.00,,,0.00,Wunderground v.1.15,2013-07-28 21:14:00,
2013-07-28 16:24:00,74.8,31.0,30.01,ENE,73,1.0,6.0,20,0.00,,,0.00,Wunderground v.1.15,2013-07-28 21:24:00,
2013-07-28 16:30:00,74.4,31.9,30.01,ESE,120,1.0,1.0,21,0.00,,,0.00,Wunderground v.1.15,2013-07-28 21:30:00,
2013-07-28 16:35:00,74.4,33.1,30.01,SSW,193,2.0,2.0,22,0.00,,,0.00,Wunderground v.1.15,2013-07-28 21:35:00,
2013-07-28 16:45:00,74.8,24.0,30.01,South,177,0.0,4.0,15,0.00,,,0.00,Wunderground v.1.15,2013-07-28 21:45:00,